Time;durP1;ratioP1;P1;durP2;ratioP2;P2;SDS_P1;SDS_P2;PMS_P1;PMS_P2;Temp;Humidity;BMP_temperature;BMP_pressure;BME280_temperature;BME280_humidity;BME280_pressure;Samples;Min_cycle;Max_cycle;Signal;HPM_P1;HPM_P2
2023/10/22 00:02:13;;;;;;;2.17;0.82;;;14.90;83.60;;;;;;5051347;28;20025;-28
2023/10/22 00:04:39;;;;;;;2.72;1.10;;;14.90;83.40;;;;;;5051566;28;20017;-29
2023/10/22 00:07:05;;;;;;;1.48;0.80;;;14.80;83.70;;;;;;5051600;28;20457;-27
2023/10/22 00:09:31;;;;;;;1.70;0.80;;;14.80;83.80;;;;;;5051419;28;20086;-27
2023/10/22 00:11:57;;;;;;;1.42;0.65;;;14.80;84.10;;;;;;5052539;28;20033;-28
2023/10/22 00:14:22;;;;;;;2.15;0.93;;;14.80;84.00;;;;;;5055406;28;20013;-29
2023/10/22 00:16:48;;;;;;;2.17;0.80;;;14.80;84.10;;;;;;5055180;28;20358;-30
2023/10/22 00:19:13;;;;;;;1.13;0.82;;;14.70;84.10;;;;;;5055097;28;20017;-30
2023/10/22 00:21:39;;;;;;;1.58;0.60;;;14.70;84.10;;;;;;5054891;28;20048;-29
2023/10/22 00:24:05;;;;;;;3.28;0.73;;;14.70;83.90;;;;;;5055085;28;20576;-29
2023/10/22 00:26:31;;;;;;;1.73;0.68;;;14.70;84.10;;;;;;5055213;28;20051;-29
2023/10/22 00:28:56;;;;;;;1.50;0.63;;;14.70;84.10;;;;;;5053384;28;20078;-31
2023/10/22 00:31:24;;;;;;;1.67;0.60;;;14.70;83.70;;;;;;5054859;28;20035;-27
2023/10/22 00:33:50;;;;;;;1.73;0.80;;;14.70;83.80;;;;;;5055110;28;20037;-29
2023/10/22 00:36:16;;;;;;;1.50;0.70;;;14.70;83.60;;;;;;5054752;28;20487;-30
2023/10/22 00:38:41;;;;;;;2.05;0.60;;;14.70;83.70;;;;;;5054509;28;20033;-28
2023/10/22 00:41:07;;;;;;;2.25;0.55;;;14.70;84.00;;;;;;5053291;28;20036;-29
2023/10/22 00:43:32;;;;;;;0.95;0.45;;;14.70;84.00;;;;;;5054877;28;20029;-30
2023/10/22 00:45:58;;;;;;;1.63;0.40;;;14.70;83.80;;;;;;5054548;28;20499;-27
2023/10/22 00:48:28;;;;;;;2.03;0.70;;;14.70;83.60;;;;;;5054504;28;20029;-29
2023/10/22 00:50:53;;;;;;;1.73;0.60;;;14.70;83.50;;;;;;5054858;28;20033;-28
2023/10/22 00:53:20;;;;;;;1.33;0.63;;;14.70;83.90;;;;;;5054633;28;20037;-28
2023/10/22 00:55:47;;;;;;;2.55;0.70;;;14.70;84.20;;;;;;5054867;28;20105;-33
2023/10/22 00:58:18;;;;;;;3.65;0.70;;;14.70;84.00;;;;;;5054415;28;20374;-27
2023/10/22 01:00:45;;;;;;;1.48;0.70;;;14.70;84.00;;;;;;5053977;28;20029;-27
2023/10/22 01:03:11;;;;;;;4.00;0.70;;;14.80;84.50;;;;;;5052536;28;20025;-27
2023/10/22 01:05:37;;;;;;;1.38;0.60;;;14.70;84.10;;;;;;5054145;28;20033;-30
2023/10/22 01:08:06;;;;;;;1.27;0.70;;;14.70;84.20;;;;;;5054252;28;20037;-35
2023/10/22 01:10:32;;;;;;;1.25;0.70;;;14.70;84.10;;;;;;5054196;28;20079;-28
2023/10/22 01:12:59;;;;;;;1.85;0.70;;;14.70;85.10;;;;;;5054380;28;20100;-28
2023/10/22 01:15:24;;;;;;;2.85;0.77;;;14.70;85.20;;;;;;5054305;28;20033;-27
2023/10/22 01:17:50;;;;;;;1.95;0.82;;;14.70;84.90;;;;;;5053984;28;20025;-31
2023/10/22 01:20:16;;;;;;;1.77;0.60;;;14.60;84.90;;;;;;5054338;28;20033;-28
2023/10/22 01:22:41;;;;;;;0.88;0.50;;;14.60;85.00;;;;;;5054063;28;20071;-30
2023/10/22 01:25:07;;;;;;;1.15;0.60;;;14.60;85.00;;;;;;5053474;28;20021;-30
2023/10/22 01:27:33;;;;;;;2.20;0.73;;;14.60;84.80;;;;;;5053855;28;20029;-27
2023/10/22 01:29:59;;;;;;;2.38;1.00;;;14.60;84.90;;;;;;5053531;28;20065;-29
2023/10/22 01:32:30;;;;;;;2.17;0.77;;;14.50;84.90;;;;;;5054039;28;20082;-29
2023/10/22 01:34:58;;;;;;;2.25;0.60;;;14.50;84.90;;;;;;5053695;28;20029;-28
2023/10/22 01:37:24;;;;;;;1.38;0.57;;;14.50;84.90;;;;;;5053934;28;20021;-30
2023/10/22 01:39:50;;;;;;;1.17;0.60;;;14.50;84.70;;;;;;5053561;28;20025;-30
2023/10/22 01:42:16;;;;;;;1.35;0.60;;;14.50;84.60;;;;;;5052233;28;20163;-32
2023/10/22 01:44:42;;;;;;;2.45;0.80;;;14.50;85.00;;;;;;5053563;28;20082;-28
2023/10/22 01:47:07;;;;;;;1.95;0.65;;;14.50;85.10;;;;;;5053299;28;20037;-28
2023/10/22 01:49:34;;;;;;;1.40;0.63;;;14.50;85.20;;;;;;5053295;28;20469;-28
2023/10/22 01:52:00;;;;;;;3.22;0.75;;;14.50;84.90;;;;;;5053373;28;20091;-29
2023/10/22 01:54:25;;;;;;;2.67;0.70;;;14.50;84.80;;;;;;5053495;28;20473;-34
2023/10/22 01:56:51;;;;;;;2.83;1.27;;;14.50;84.80;;;;;;5053661;28;20056;-32
2023/10/22 01:59:16;;;;;;;1.48;0.50;;;14.50;84.70;;;;;;5051633;28;20021;-32
2023/10/22 02:01:42;;;;;;;1.13;0.60;;;14.50;84.50;;;;;;5053253;28;20033;-31
2023/10/22 02:04:08;;;;;;;0.93;0.60;;;14.50;84.50;;;;;;5053369;28;20063;-29
2023/10/22 02:06:34;;;;;;;1.50;0.70;;;14.50;84.60;;;;;;5053002;28;20025;-30
2023/10/22 02:09:00;;;;;;;4.28;1.25;;;14.50;84.50;;;;;;5053019;28;20031;-29
2023/10/22 02:11:27;;;;;;;1.63;0.77;;;14.50;84.50;;;;;;5053362;28;20068;-29
2023/10/22 02:13:52;;;;;;;1.75;0.65;;;14.50;84.50;;;;;;5053311;28;20021;-29
2023/10/22 02:16:18;;;;;;;2.70;0.85;;;14.40;84.60;;;;;;5052984;28;20090;-28
2023/10/22 02:18:44;;;;;;;2.65;0.70;;;14.40;84.90;;;;;;5053097;28;20087;-27
2023/10/22 02:21:10;;;;;;;2.35;1.00;;;14.40;84.90;;;;;;5052871;28;20521;-28
2023/10/22 02:23:36;;;;;;;2.25;0.60;;;14.30;85.10;;;;;;5053177;28;20040;-31
2023/10/22 02:26:03;;;;;;;2.35;0.73;;;14.30;85.30;;;;;;5053092;28;20028;-29
2023/10/22 02:28:29;;;;;;;2.47;0.90;;;14.30;85.50;;;;;;5052663;28;20023;-28
2023/10/22 02:30:54;;;;;;;1.58;0.57;;;14.20;85.70;;;;;;5052711;28;20116;-28
2023/10/22 02:33:20;;;;;;;2.28;0.80;;;14.10;86.00;;;;;;5052757;28;20036;-28
2023/10/22 02:35:46;;;;;;;3.67;0.90;;;14.00;86.20;;;;;;5051765;28;20564;-29
2023/10/22 02:38:14;;;;;;;2.28;0.88;;;14.00;86.60;;;;;;5052863;28;20021;-32
2023/10/22 02:40:40;;;;;;;3.00;0.80;;;13.90;86.90;;;;;;5052318;28;20029;-28
2023/10/22 02:43:05;;;;;;;2.42;0.88;;;13.80;87.20;;;;;;5052593;28;20123;-28
2023/10/22 02:45:31;;;;;;;1.77;0.70;;;13.80;87.40;;;;;;5052638;28;20028;-34
2023/10/22 02:48:00;;;;;;;2.40;0.70;;;13.70;87.90;;;;;;5052504;28;20023;-27
2023/10/22 02:50:26;;;;;;;1.67;0.88;;;13.60;88.10;;;;;;5052432;28;20028;-28
2023/10/22 02:52:53;;;;;;;2.22;0.90;;;13.60;88.20;;;;;;5052247;28;20029;-28
2023/10/22 02:55:19;;;;;;;3.35;0.90;;;13.60;88.80;;;;;;5052521;28;20029;-28
2023/10/22 02:57:45;;;;;;;2.78;0.80;;;13.60;88.30;;;;;;5052153;28;20505;-27
2023/10/22 03:00:11;;;;;;;3.05;1.20;;;13.60;88.40;;;;;;5050651;28;20021;-25
2023/10/22 03:02:40;;;;;;;2.63;1.10;;;13.60;88.50;;;;;;5052428;28;20397;-26
2023/10/22 03:05:06;;;;;;;1.92;1.00;;;13.60;88.70;;;;;;5052075;28;20029;-26
2023/10/22 03:07:32;;;;;;;2.53;0.90;;;13.60;88.80;;;;;;5052068;28;20116;-29
2023/10/22 03:09:58;;;;;;;2.15;1.00;;;13.60;88.80;;;;;;5051918;28;20500;-28
2023/10/22 03:12:24;;;;;;;1.83;0.93;;;13.60;88.80;;;;;;5052322;28;20031;-30
2023/10/22 03:14:53;;;;;;;2.47;1.08;;;13.60;88.80;;;;;;5052055;28;20112;-28
2023/10/22 03:17:19;;;;;;;1.98;0.95;;;13.60;88.80;;;;;;5051870;28;20033;-28
2023/10/22 03:19:45;;;;;;;3.30;1.00;;;13.60;88.80;;;;;;5051818;28;20047;-27
2023/10/22 03:22:13;;;;;;;2.22;1.00;;;13.60;88.90;;;;;;5051860;28;20056;-32
2023/10/22 03:24:39;;;;;;;1.95;1.02;;;13.60;88.80;;;;;;5051772;28;20020;-29
2023/10/22 03:27:05;;;;;;;2.72;1.10;;;13.60;88.80;;;;;;5051738;28;20432;-28
2023/10/22 03:29:32;;;;;;;5.10;1.20;;;13.60;88.80;;;;;;5051633;28;20041;-30
2023/10/22 03:31:58;;;;;;;2.58;1.20;;;13.60;88.90;;;;;;5051971;28;20538;-27
2023/10/22 03:34:24;;;;;;;3.22;1.00;;;13.60;88.90;;;;;;5051611;28;20029;-27
2023/10/22 03:36:50;;;;;;;2.92;1.23;;;13.60;88.90;;;;;;5050330;28;20116;-28
2023/10/22 03:39:17;;;;;;;2.42;1.23;;;13.50;88.90;;;;;;5051630;28;20048;-29
2023/10/22 03:41:43;;;;;;;3.88;1.10;;;13.50;89.00;;;;;;5051766;28;20029;-27
2023/10/22 03:44:09;;;;;;;3.95;1.50;;;13.50;89.10;;;;;;5051679;28;20511;-28
2023/10/22 03:46:35;;;;;;;2.88;1.27;;;13.50;89.20;;;;;;5052358;28;20036;-30
2023/10/22 03:49:00;;;;;;;2.70;1.20;;;13.50;89.30;;;;;;5055747;28;20366;-27
2023/10/22 03:51:26;;;;;;;2.80;1.25;;;13.50;89.40;;;;;;5055807;28;20036;-28
2023/10/22 03:53:56;;;;;;;1.75;1.38;;;13.50;89.50;;;;;;5056025;28;20497;-30
2023/10/22 03:56:22;;;;;;;4.22;1.60;;;13.50;89.60;;;;;;5055807;28;20094;-28
2023/10/22 03:58:48;;;;;;;2.67;1.30;;;13.40;89.70;;;;;;5055535;28;20040;-28
2023/10/22 04:01:13;;;;;;;3.13;1.80;;;13.40;89.70;;;;;;5054180;28;20032;-31
2023/10/22 04:03:39;;;;;;;2.25;1.42;;;13.40;89.80;;;;;;5055577;28;20500;-28
2023/10/22 04:06:04;;;;;;;3.10;2.10;;;13.40;89.90;;;;;;5055653;28;20546;-27
2023/10/22 04:08:30;;;;;;;3.53;1.50;;;13.40;90.00;;;;;;5055760;28;20100;-27
2023/10/22 04:10:56;;;;;;;2.47;1.50;;;13.30;90.10;;;;;;5055407;28;20083;-27
2023/10/22 04:13:22;;;;;;;2.65;1.75;;;13.30;90.20;;;;;;5055384;28;20033;-29
2023/10/22 04:15:48;;;;;;;1.98;1.30;;;13.20;90.20;;;;;;5055309;28;20112;-30
2023/10/22 04:18:16;;;;;;;1.92;1.55;;;13.20;90.60;;;;;;5054380;28;20078;-27
2023/10/22 04:20:41;;;;;;;2.60;1.52;;;13.20;90.30;;;;;;5054403;28;20044;-28
2023/10/22 04:23:08;;;;;;;1.52;1.30;;;13.20;90.40;;;;;;5055189;28;20021;-29
2023/10/22 04:25:42;;;;;;;1.58;1.40;;;13.20;90.40;;;;;;5055461;28;20109;-27
2023/10/22 04:28:08;;;;;;;2.30;1.63;;;13.20;90.50;;;;;;5055372;28;20032;-27
2023/10/22 04:30:43;;;;;;;1.40;1.30;;;13.20;90.50;;;;;;5054713;28;20115;-28
2023/10/22 04:33:09;;;;;;;3.58;1.50;;;13.10;90.50;;;;;;5055245;28;20040;-30
2023/10/22 04:35:35;;;;;;;3.30;1.65;;;13.20;90.50;;;;;;5054966;28;20397;-28
2023/10/22 04:38:02;;;;;;;2.50;1.83;;;13.10;90.50;;;;;;5054816;28;20029;-27
2023/10/22 04:40:34;;;;;;;2.10;1.90;;;13.10;90.50;;;;;;5054867;28;20032;-27
2023/10/22 04:43:00;;;;;;;1.90;1.70;;;13.10;90.60;;;;;;5054783;28;20021;-27
2023/10/22 04:45:26;;;;;;;2.22;1.80;;;13.00;90.50;;;;;;5054656;28;20040;-31
2023/10/22 04:47:54;;;;;;;3.22;1.80;;;13.00;90.60;;;;;;5054459;28;20036;-27
2023/10/22 04:50:20;;;;;;;3.42;1.98;;;13.00;90.60;;;;;;5054567;28;20078;-34
2023/10/22 04:52:45;;;;;;;2.85;1.88;;;13.00;90.60;;;;;;5054597;28;20040;-26
2023/10/22 04:55:11;;;;;;;2.70;2.05;;;13.00;90.60;;;;;;5054761;28;20021;-33
2023/10/22 04:57:37;;;;;;;3.38;2.00;;;13.00;90.50;;;;;;5054672;28;20485;-26
2023/10/22 05:00:13;;;;;;;3.95;2.10;;;13.00;90.50;;;;;;5053291;28;20033;-29
2023/10/22 05:02:38;;;;;;;3.60;2.30;;;13.00;90.50;;;;;;5054465;28;20108;-27
2023/10/22 05:05:04;;;;;;;4.63;2.15;;;13.00;90.60;;;;;;5053063;28;20112;-27
2023/10/22 05:07:30;;;;;;;1.75;1.65;;;13.00;90.60;;;;;;5054673;28;20404;-30
2023/10/22 05:09:55;;;;;;;5.18;2.10;;;13.00;90.60;;;;;;5054425;28;20098;-31
2023/10/22 05:12:21;;;;;;;3.03;2.40;;;13.00;90.60;;;;;;5054219;28;20124;-27
2023/10/22 05:14:46;;;;;;;2.83;2.40;;;13.00;90.60;;;;;;5054661;28;20037;-29
2023/10/22 05:17:13;;;;;;;3.10;2.13;;;13.00;90.60;;;;;;5054182;28;20048;-27
2023/10/22 05:19:39;;;;;;;3.55;2.17;;;13.00;90.60;;;;;;5054014;28;20033;-28
2023/10/22 05:22:04;;;;;;;6.03;2.58;;;13.10;90.60;;;;;;5054348;28;20025;-27
2023/10/22 05:24:31;;;;;;;5.00;2.88;;;13.10;90.60;;;;;;5054023;28;20033;-27
2023/10/22 05:26:56;;;;;;;4.18;2.60;;;13.10;90.60;;;;;;5053885;28;20050;-26
2023/10/22 05:29:22;;;;;;;5.30;3.30;;;13.10;90.60;;;;;;5053681;28;20120;-31
2023/10/22 05:31:48;;;;;;;4.32;3.25;;;13.10;90.60;;;;;;5054085;28;20465;-30
2023/10/22 05:34:14;;;;;;;6.03;4.05;;;13.00;90.50;;;;;;5053766;28;20060;-28
2023/10/22 05:36:40;;;;;;;5.32;3.30;;;13.10;90.60;;;;;;5053832;28;20114;-27
2023/10/22 05:39:05;;;;;;;4.93;3.83;;;13.00;90.60;;;;;;5053830;28;20032;-27
2023/10/22 05:41:31;;;;;;;5.85;3.72;;;13.00;90.60;;;;;;5053644;28;20043;-27
2023/10/22 05:44:01;;;;;;;5.00;3.72;;;13.00;90.50;;;;;;5053581;28;20029;-28
2023/10/22 05:46:36;;;;;;;3.88;3.25;;;13.00;90.60;;;;;;5053819;28;20044;-29
2023/10/22 05:49:03;;;;;;;5.40;3.00;;;12.90;90.60;;;;;;5053460;28;20032;-29
2023/10/22 05:51:29;;;;;;;4.63;3.20;;;12.80;90.70;;;;;;5053338;28;20127;-29
2023/10/22 05:53:55;;;;;;;3.83;3.05;;;12.80;90.70;;;;;;5053750;28;20083;-27
2023/10/22 05:56:23;;;;;;;4.40;2.92;;;12.70;90.80;;;;;;5053478;28;20025;-27
2023/10/22 05:58:48;;;;;;;3.75;3.25;;;12.70;90.80;;;;;;5053685;28;20029;-30
2023/10/22 06:01:14;;;;;;;5.28;3.38;;;12.60;90.80;;;;;;5053206;28;20374;-28
2023/10/22 06:03:40;;;;;;;4.93;3.72;;;12.60;90.90;;;;;;5053295;28;20100;-29
2023/10/22 06:06:05;;;;;;;5.60;3.70;;;12.60;90.90;;;;;;5053212;28;20024;-28
2023/10/22 06:08:31;;;;;;;8.07;3.38;;;12.50;90.90;;;;;;5053281;28;20021;-26
2023/10/22 06:10:56;;;;;;;5.25;3.72;;;12.50;91.00;;;;;;5052818;28;20507;-27
2023/10/22 06:13:22;;;;;;;6.05;4.25;;;12.50;91.00;;;;;;5053127;28;20105;-27
2023/10/22 06:15:48;;;;;;;5.78;4.00;;;12.50;91.10;;;;;;5052930;28;20024;-27
2023/10/22 06:18:13;;;;;;;7.57;4.25;;;12.50;91.10;;;;;;5053307;28;20025;-31
2023/10/22 06:20:39;;;;;;;4.80;3.60;;;12.50;91.10;;;;;;5051389;28;20056;-27
2023/10/22 06:23:06;;;;;;;4.47;3.80;;;12.50;91.10;;;;;;5053191;28;20108;-26
2023/10/22 06:25:32;;;;;;;4.60;4.10;;;12.50;91.10;;;;;;5053228;28;20028;-28
2023/10/22 06:27:59;;;;;;;5.25;4.18;;;12.50;91.20;;;;;;5053032;28;20025;-29
2023/10/22 06:30:25;;;;;;;4.93;4.22;;;12.50;91.20;;;;;;5052489;28;20049;-28
2023/10/22 06:32:58;;;;;;;5.60;4.30;;;12.50;91.20;;;;;;5052737;28;20033;-28
2023/10/22 06:35:28;;;;;;;5.28;4.50;;;12.50;91.30;;;;;;5052844;28;20079;-28
2023/10/22 06:37:53;;;;;;;4.85;4.15;;;12.50;91.30;;;;;;5052564;28;20029;-28
2023/10/22 06:40:20;;;;;;;5.18;4.68;;;12.40;91.40;;;;;;5052239;28;20029;-30
2023/10/22 06:42:46;;;;;;;5.43;4.55;;;12.40;91.40;;;;;;5052924;28;20397;-28
2023/10/22 06:45:11;;;;;;;6.13;4.70;;;12.40;91.40;;;;;;5052705;28;20025;-26
2023/10/22 06:47:37;;;;;;;7.82;4.75;;;12.40;91.40;;;;;;5052345;28;20040;-26
2023/10/22 06:50:04;;;;;;;7.57;4.90;;;12.50;91.50;;;;;;5050919;28;20116;-27
2023/10/22 06:52:30;;;;;;;7.07;4.85;;;12.50;91.50;;;;;;5052582;28;20404;-27
2023/10/22 06:54:55;;;;;;;5.57;4.95;;;12.50;91.50;;;;;;5052362;28;20119;-32
2023/10/22 06:57:21;;;;;;;7.55;4.70;;;12.60;91.50;;;;;;5052206;28;20037;-30
2023/10/22 06:59:52;;;;;;;7.25;5.00;;;12.60;91.50;;;;;;5052342;28;20029;-28
2023/10/22 07:02:17;;;;;;;6.80;4.45;;;12.70;91.50;;;;;;5052450;28;20017;-27
2023/10/22 07:04:44;;;;;;;5.53;4.10;;;12.80;91.40;;;;;;5052110;28;20033;-27
2023/10/22 07:07:10;;;;;;;5.57;4.40;;;12.80;91.40;;;;;;5052314;28;20025;-27
2023/10/22 07:09:36;;;;;;;5.85;3.80;;;12.80;91.40;;;;;;5052158;28;20032;-28
2023/10/22 07:12:02;;;;;;;6.85;4.32;;;12.90;91.30;;;;;;5051991;28;20037;-28
2023/10/22 07:14:29;;;;;;;5.85;3.72;;;12.90;91.30;;;;;;5052260;28;20445;-27
2023/10/22 07:16:54;;;;;;;5.72;3.97;;;12.90;91.30;;;;;;5052099;28;20381;-27
2023/10/22 07:19:20;;;;;;;5.40;4.15;;;12.90;91.20;;;;;;5051750;28;20036;-28
2023/10/22 07:21:45;;;;;;;6.30;4.00;;;12.90;91.20;;;;;;5051163;28;20568;-27
2023/10/22 07:24:11;;;;;;;5.95;3.80;;;12.90;91.20;;;;;;5051872;28;20029;-28
2023/10/22 07:26:37;;;;;;;5.57;3.65;;;12.90;91.20;;;;;;5051739;28;20021;-27
2023/10/22 07:29:02;;;;;;;3.70;3.35;;;12.90;91.20;;;;;;5051418;28;20053;-28
2023/10/22 07:31:28;;;;;;;4.68;3.40;;;12.90;91.10;;;;;;5051553;28;20043;-27
2023/10/22 07:33:54;;;;;;;6.32;3.70;;;12.90;91.10;;;;;;5051989;28;20029;-28
2023/10/22 07:36:19;;;;;;;5.38;3.40;;;13.00;91.10;;;;;;5051358;28;20059;-27
2023/10/22 07:38:45;;;;;;;5.00;3.30;;;13.00;91.10;;;;;;5051329;28;20025;-36
2023/10/22 07:41:18;;;;;;;7.80;3.22;;;13.10;91.00;;;;;;5051624;28;20112;-27
2023/10/22 07:43:44;;;;;;;3.88;2.80;;;13.00;90.80;;;;;;5051461;28;20032;-28
2023/10/22 07:46:10;;;;;;;5.03;3.10;;;13.00;90.80;;;;;;5051432;28;20029;-28
2023/10/22 07:48:37;;;;;;;3.78;2.83;;;13.00;90.80;;;;;;5051391;28;20079;-29
2023/10/22 07:51:12;;;;;;;6.57;2.92;;;13.00;90.80;;;;;;5051393;28;20039;-27
2023/10/22 07:53:38;;;;;;;4.45;2.50;;;12.90;90.70;;;;;;5051401;28;20041;-27
2023/10/22 07:56:05;;;;;;;5.30;2.67;;;12.90;90.80;;;;;;5051728;28;20036;-29
2023/10/22 07:58:31;;;;;;;4.45;2.70;;;12.90;90.80;;;;;;5051121;28;20041;-28
2023/10/22 08:00:56;;;;;;;3.83;2.35;;;12.90;90.80;;;;;;5051105;28;20048;-28
2023/10/22 08:03:22;;;;;;;5.07;2.58;;;12.80;90.80;;;;;;5051621;28;20037;-29
2023/10/22 08:05:47;;;;;;;6.65;2.67;;;12.80;90.70;;;;;;5051311;28;20071;-28
2023/10/22 08:08:13;;;;;;;3.58;2.50;;;12.80;90.70;;;;;;5051279;28;20025;-27
2023/10/22 08:10:38;;;;;;;4.10;2.40;;;12.70;90.60;;;;;;5051538;28;20101;-28
2023/10/22 08:13:04;;;;;;;5.07;2.60;;;12.70;90.70;;;;;;5051631;28;20098;-27
2023/10/22 08:15:29;;;;;;;3.65;2.13;;;12.70;90.70;;;;;;5051695;28;20122;-29
2023/10/22 08:17:55;;;;;;;3.95;2.35;;;12.70;90.60;;;;;;5051409;28;20021;-28
2023/10/22 08:20:20;;;;;;;5.22;2.10;;;12.80;90.60;;;;;;5050864;28;20333;-33
2023/10/22 08:22:46;;;;;;;2.33;2.00;;;12.70;90.60;;;;;;5051153;28;20041;-30
2023/10/22 08:25:11;;;;;;;4.68;2.40;;;12.70;90.60;;;;;;5051192;28;20521;-29
2023/10/22 08:27:37;;;;;;;3.22;2.00;;;12.80;90.60;;;;;;5051100;28;20036;-30
2023/10/22 08:30:03;;;;;;;3.92;2.00;;;12.80;90.50;;;;;;5050769;28;20065;-31
2023/10/22 08:32:28;;;;;;;2.70;1.90;;;12.80;90.50;;;;;;5051605;28;20037;-29
2023/10/22 08:34:54;;;;;;;4.25;2.03;;;12.80;90.50;;;;;;5054811;28;20362;-36
2023/10/22 08:37:19;;;;;;;3.88;2.20;;;12.90;90.50;;;;;;5055219;28;20029;-28
2023/10/22 08:39:45;;;;;;;3.08;1.85;;;12.90;90.40;;;;;;5054813;28;20036;-26
2023/10/22 08:42:16;;;;;;;3.13;1.83;;;12.90;90.40;;;;;;5055071;28;20409;-27
2023/10/22 08:44:46;;;;;;;4.18;1.77;;;12.90;90.30;;;;;;5054770;28;20040;-27
2023/10/22 08:47:12;;;;;;;2.10;1.90;;;12.90;90.30;;;;;;5054687;28;20025;-28
2023/10/22 08:49:41;;;;;;;2.88;1.70;;;12.90;90.30;;;;;;5054828;28;20094;-27
2023/10/22 08:52:10;;;;;;;4.97;2.00;;;12.90;90.30;;;;;;5054875;28;20377;-27
2023/10/22 08:54:37;;;;;;;2.05;1.70;;;12.90;90.30;;;;;;5054519;28;20169;-28
2023/10/22 08:57:03;;;;;;;5.40;1.92;;;12.90;90.30;;;;;;5054369;28;20028;-27
2023/10/22 08:59:29;;;;;;;2.42;1.50;;;13.00;90.30;;;;;;5054536;28;20029;-30
2023/10/22 09:01:56;;;;;;;3.55;1.83;;;13.10;90.20;;;;;;5054217;28;20190;-31
2023/10/22 09:04:22;;;;;;;1.92;1.40;;;13.20;90.20;;;;;;5054534;28;20481;-28
2023/10/22 09:06:52;;;;;;;2.65;1.30;;;13.30;90.10;;;;;;5054345;28;20029;-28
2023/10/22 09:09:28;;;;;;;3.72;1.60;;;13.30;90.00;;;;;;5054389;28;20028;-27
2023/10/22 09:11:58;;;;;;;2.97;1.52;;;13.40;90.00;;;;;;5054037;28;20025;-33
2023/10/22 09:14:24;;;;;;;2.28;1.40;;;13.50;89.80;;;;;;5054485;28;20029;-29
2023/10/22 09:16:50;;;;;;;2.28;1.40;;;13.60;89.70;;;;;;5054248;28;20025;-29
2023/10/22 09:19:52;;;;;;;2.83;1.40;;;13.60;89.50;;;;;;5053903;28;20044;-30
2023/10/22 09:22:26;;;;;;;3.33;1.40;;;13.70;89.40;;;;;;5031677;28;20083;-30
2023/10/22 09:24:56;;;;;;;3.17;1.40;;;13.80;89.20;;;;;;5051052;28;20394;-28
2023/10/22 09:27:24;;;;;;;2.20;1.45;;;13.80;89.00;;;;;;5053734;28;20104;-29
2023/10/22 09:29:50;;;;;;;5.47;1.40;;;13.80;88.90;;;;;;5053523;28;20106;-28
2023/10/22 09:32:16;;;;;;;5.55;1.50;;;13.90;88.90;;;;;;5053568;28;20036;-27
2023/10/22 09:34:41;;;;;;;2.55;1.55;;;14.00;88.70;;;;;;5053630;28;20465;-27
2023/10/22 09:37:07;;;;;;;1.17;1.05;;;14.00;88.60;;;;;;5053613;28;20381;-27
2023/10/22 09:39:36;;;;;;;3.58;1.70;;;14.00;88.50;;;;;;5053371;28;20027;-28
2023/10/22 09:42:05;;;;;;;5.20;1.90;;;14.10;88.50;;;;;;5053894;28;20520;-29
2023/10/22 09:44:32;;;;;;;3.75;1.42;;;14.10;88.20;;;;;;5053341;28;20074;-31
2023/10/22 09:47:03;;;;;;;4.07;1.40;;;14.20;88.30;;;;;;5053675;28;20442;-28
2023/10/22 09:49:33;;;;;;;2.45;1.50;;;14.20;88.70;;;;;;5053508;28;20504;-31
2023/10/22 09:52:00;;;;;;;3.42;1.48;;;14.20;87.90;;;;;;5053797;28;20029;-28
2023/10/22 09:54:39;;;;;;;1.35;1.20;;;14.20;87.90;;;;;;5053346;28;20082;-28
2023/10/22 09:57:09;;;;;;;3.90;1.50;;;14.30;88.00;;;;;;5053763;28;20386;-27
2023/10/22 09:59:35;;;;;;;2.55;1.40;;;14.30;87.60;;;;;;5053148;28;20029;-28
2023/10/22 10:02:01;;;;;;;3.72;1.58;;;14.30;87.50;;;;;;5053239;28;20078;-29
2023/10/22 10:04:27;;;;;;;1.52;1.30;;;14.40;87.40;;;;;;5053438;28;20021;-27
2023/10/22 10:06:53;;;;;;;3.35;1.45;;;14.40;87.30;;;;;;5053424;28;20580;-28
2023/10/22 10:09:21;;;;;;;4.35;1.30;;;14.50;87.30;;;;;;5053229;28;20041;-27
2023/10/22 10:11:48;;;;;;;2.33;1.30;;;14.50;87.10;;;;;;5053200;28;20028;-27
2023/10/22 10:14:38;;;;;;;2.60;1.20;;;14.60;87.00;;;;;;5035124;28;20060;-28
2023/10/22 10:17:04;;;;;;;3.38;1.48;;;14.60;86.80;;;;;;5053064;28;20504;-28
2023/10/22 10:19:30;;;;;;;1.83;1.05;;;14.70;86.80;;;;;;5052751;28;20107;-28
2023/10/22 10:21:56;;;;;;;2.92;1.10;;;14.80;86.80;;;;;;5052708;28;20111;-28
2023/10/22 10:24:30;;;;;;;4.10;1.50;;;14.80;86.50;;;;;;5052821;28;20491;-34
2023/10/22 10:26:56;;;;;;;1.50;0.90;;;14.80;86.00;;;;;;5053126;28;20488;-27
2023/10/22 10:29:27;;;;;;;3.55;1.38;;;14.90;86.10;;;;;;5052110;28;20049;-34
2023/10/22 10:32:15;;;;;;;2.90;1.40;;;14.90;85.80;;;;;;5052790;28;20041;-34
2023/10/22 10:34:43;;;;;;;2.00;1.20;;;14.90;85.40;;;;;;5052468;28;20033;-28
2023/10/22 10:37:14;;;;;;;1.90;1.10;;;15.00;85.10;;;;;;5052520;28;20025;-35
2023/10/22 10:39:46;;;;;;;4.30;1.40;;;15.00;85.20;;;;;;5051999;28;20036;-28
2023/10/22 10:42:36;;;;;;;1.98;1.10;;;15.00;84.90;;;;;;5052422;28;20036;-33
2023/10/22 10:45:08;;;;;;;2.95;1.30;;;15.00;84.70;;;;;;5052500;28;20500;-28
2023/10/22 10:47:36;;;;;;;3.13;1.50;;;15.00;84.40;;;;;;5052226;28;20029;-37
2023/10/22 10:50:07;;;;;;;3.00;1.10;;;15.00;84.40;;;;;;5052668;28;20025;-28
2023/10/22 10:52:38;;;;;;;5.07;1.27;;;15.00;84.30;;;;;;5052576;28;20155;-28
2023/10/22 10:55:15;;;;;;;1.92;1.17;;;15.00;84.10;;;;;;5052481;28;20106;-44
2023/10/22 10:57:44;;;;;;;5.10;1.33;;;15.00;84.10;;;;;;5051378;28;20033;-44
2023/10/22 11:00:19;;;;;;;2.88;1.20;;;15.10;83.50;;;;;;5051950;28;20517;-41
2023/10/22 11:02:45;;;;;;;4.47;0.93;;;15.20;83.50;;;;;;5051817;28;20021;-43
2023/10/22 11:05:12;;;;;;;2.28;0.90;;;15.20;83.40;;;;;;5052144;28;20033;-44
2023/10/22 11:07:38;;;;;;;2.25;1.02;;;15.20;83.40;;;;;;5051974;28;20108;-46
2023/10/22 11:10:16;;;;;;;2.08;1.10;;;15.30;83.40;;;;;;5052059;28;20369;-44
2023/10/22 11:12:43;;;;;;;3.20;1.17;;;15.30;82.80;;;;;;5052211;28;20163;-42
2023/10/22 11:15:10;;;;;;;1.67;1.00;;;15.30;82.20;;;;;;5052020;28;20497;-45
2023/10/22 11:17:43;;;;;;;1.70;0.90;;;15.30;82.40;;;;;;5051769;28;20031;-49
2023/10/22 11:20:09;;;;;;;2.73;1.30;;;15.30;82.10;;;;;;5051504;28;20362;-48
2023/10/22 11:22:38;;;;;;;2.85;1.02;;;15.30;81.70;;;;;;5051986;28;20843;-41
2023/10/22 11:25:07;;;;;;;2.70;1.17;;;15.30;81.80;;;;;;5052161;28;20505;-35
2023/10/22 11:27:36;;;;;;;2.13;1.20;;;15.30;81.90;;;;;;5051741;28;20021;-34
2023/10/22 11:30:02;;;;;;;1.38;0.88;;;15.40;81.80;;;;;;5051669;28;20470;-34
2023/10/22 11:32:27;;;;;;;2.95;1.10;;;15.40;81.60;;;;;;5051631;28;20053;-34
2023/10/22 11:34:58;;;;;;;3.47;1.00;;;15.50;81.30;;;;;;5051603;28;20108;-37
2023/10/22 11:37:37;;;;;;;1.50;0.80;;;15.50;81.80;;;;;;5051792;28;20416;-35
2023/10/22 11:40:25;;;;;;;3.13;0.98;;;15.50;80.80;;;;;;5051393;28;20044;-35
2023/10/22 11:42:51;;;;;;;2.33;1.00;;;15.50;80.90;;;;;;5051573;28;20032;-35
2023/10/22 11:45:16;;;;;;;2.28;0.95;;;15.60;80.90;;;;;;5051489;28;20021;-34
2023/10/22 11:47:42;;;;;;;1.52;1.17;;;15.60;80.90;;;;;;5051519;28;20111;-35
2023/10/22 11:50:09;;;;;;;1.55;0.93;;;15.60;80.80;;;;;;5051381;28;20029;-35
2023/10/22 11:52:35;;;;;;;3.50;1.08;;;15.70;80.80;;;;;;5051296;28;20122;-35
2023/10/22 11:55:07;;;;;;;1.92;1.13;;;15.70;80.80;;;;;;5051581;28;20065;-35
2023/10/22 11:57:37;;;;;;;1.58;1.20;;;15.70;80.50;;;;;;5051539;28;20033;-34
2023/10/22 12:00:06;;;;;;;2.50;1.40;;;15.80;80.50;;;;;;5051648;28;20480;-35
2023/10/22 12:02:32;;;;;;;3.03;1.30;;;15.70;79.70;;;;;;5048930;28;20466;-34
2023/10/22 12:04:57;;;;;;;1.60;1.50;;;15.70;79.50;;;;;;5051315;28;20103;-35
2023/10/22 12:07:23;;;;;;;2.63;1.23;;;15.80;79.00;;;;;;5051863;28;20067;-34
2023/10/22 12:09:49;;;;;;;1.65;1.30;;;15.80;79.40;;;;;;5055364;28;20102;-35
2023/10/22 12:12:15;;;;;;;1.60;1.50;;;15.70;79.60;;;;;;5055332;28;20033;-36
2023/10/22 12:14:42;;;;;;;1.63;1.45;;;15.80;79.60;;;;;;5055430;28;20032;-33
2023/10/22 12:17:08;;;;;;;2.47;1.58;;;15.80;79.10;;;;;;5055136;28;20056;-38
2023/10/22 12:19:34;;;;;;;1.77;1.40;;;15.90;79.30;;;;;;5054660;28;20025;-34
2023/10/22 12:22:00;;;;;;;4.53;1.50;;;15.90;78.50;;;;;;5054843;28;20029;-37
2023/10/22 12:24:26;;;;;;;2.38;1.38;;;15.90;78.60;;;;;;5055047;28;20035;-35
2023/10/22 12:26:51;;;;;;;1.95;1.50;;;15.90;78.80;;;;;;5055272;28;20021;-35
2023/10/22 12:29:17;;;;;;;2.22;1.40;;;16.00;78.90;;;;;;5054825;28;20045;-34
2023/10/22 12:31:42;;;;;;;1.33;1.20;;;16.00;78.40;;;;;;5054895;28;20126;-35
2023/10/22 12:34:08;;;;;;;2.35;1.60;;;16.00;78.10;;;;;;5054956;28;20033;-34
2023/10/22 12:36:34;;;;;;;1.73;1.42;;;16.00;78.00;;;;;;5055242;28;20021;-35
2023/10/22 12:39:00;;;;;;;1.88;1.35;;;16.00;78.10;;;;;;5055116;28;20387;-35
2023/10/22 12:41:26;;;;;;;1.50;1.23;;;16.00;77.50;;;;;;5055120;28;20582;-33
2023/10/22 12:43:52;;;;;;;3.55;1.48;;;16.00;76.90;;;;;;5054621;28;20096;-36
2023/10/22 12:46:18;;;;;;;2.45;1.80;;;16.00;76.00;;;;;;5054553;28;20053;-36
2023/10/22 12:48:44;;;;;;;2.28;1.80;;;16.00;76.10;;;;;;5054457;28;20017;-34